Time;durP1;ratioP1;P1;durP2;ratioP2;P2;SDS_P1;SDS_P2;PMS_P1;PMS_P2;Temp;Humidity;BMP_temperature;BMP_pressure;BME280_temperature;BME280_humidity;BME280_pressure;Samples;Min_cycle;Max_cycle;Signal;HPM_P1;HPM_P2
2022/03/29 00:01:55;;;;;;;34.13;17.17;;;13.70;19.40;;;;;;5092154;28;20467;-72
2022/03/29 00:04:21;;;;;;;33.23;16.97;;;14.00;19.40;;;;;;5104388;28;20780;-71
2022/03/29 00:06:46;;;;;;;37.33;17.40;;;13.70;18.90;;;;;;5096491;28;20590;-72
2022/03/29 00:09:12;;;;;;;29.27;16.47;;;13.70;19.40;;;;;;5093160;28;20551;-72
2022/03/29 00:11:38;;;;;;;31.27;17.30;;;13.50;20.60;;;;;;5093020;28;20202;-71
2022/03/29 00:14:05;;;;;;;37.30;16.10;;;13.70;20.80;;;;;;5092619;28;20277;-71
2022/03/29 00:16:31;;;;;;;33.77;16.37;;;13.30;21.30;;;;;;5092981;28;20174;-71
2022/03/29 00:18:57;;;;;;;30.40;16.47;;;13.20;21.10;;;;;;5092497;28;20531;-71
2022/03/29 00:21:22;;;;;;;35.80;16.33;;;13.10;22.20;;;;;;5092732;28;20890;-72
2022/03/29 00:23:48;;;;;;;29.07;16.93;;;12.90;21.80;;;;;;5073741;28;21016;-71
2022/03/29 00:26:14;;;;;;;37.10;17.47;;;11.60;19.90;;;;;;5091787;28;20656;-72
2022/03/29 00:28:40;;;;;;;44.17;15.57;;;13.00;21.70;;;;;;5093459;28;20584;-71
2022/03/29 00:31:06;;;;;;;31.83;16.50;;;13.30;20.70;;;;;;5091923;28;20463;-71
2022/03/29 00:33:31;;;;;;;33.40;15.60;;;13.30;21.20;;;;;;5093005;28;20175;-71
2022/03/29 00:35:57;;;;;;;30.10;17.17;;;12.80;21.80;;;;;;5092030;28;20630;-72
2022/03/29 00:38:22;;;;;;;33.93;17.20;;;12.90;22.90;;;;;;5092961;28;20547;-72
2022/03/29 00:40:48;;;;;;;27.53;16.50;;;13.10;21.20;;;;;;5091944;28;20222;-71
2022/03/29 00:43:13;;;;;;;30.40;16.53;;;13.00;21.90;;;;;;5092533;28;20183;-71
2022/03/29 00:45:39;;;;;;;33.20;17.10;;;13.20;21.00;;;;;;5091131;28;20588;-71
2022/03/29 00:48:08;;;;;;;35.83;16.30;;;13.50;21.20;;;;;;5080127;28;20739;-71
2022/03/29 00:50:36;;;;;;;35.43;15.40;;;13.40;20.40;;;;;;5092314;28;20663;-71
2022/03/29 00:53:03;;;;;;;27.80;15.83;;;13.30;21.20;;;;;;5091928;28;20432;-72
2022/03/29 00:55:30;;;;;;;33.70;16.00;;;12.90;22.60;;;;;;5073589;28;21017;-72
2022/03/29 00:57:56;;;;;;;30.30;16.35;;;12.60;23.50;;;;;;5091208;28;20466;-71
2022/03/29 01:00:23;;;;;;;28.77;16.20;;;12.60;22.80;;;;;;5091917;28;20183;-71
2022/03/29 01:02:48;;;;;;;30.03;15.70;;;12.50;22.10;;;;;;5090972;28;21299;-72
2022/03/29 01:05:14;;;;;;;29.00;15.93;;;12.40;23.10;;;;;;5092341;28;20405;-71
2022/03/29 01:07:41;;;;;;;28.47;16.53;;;12.40;22.60;;;;;;5091548;28;20285;-72
2022/03/29 01:10:07;;;;;;;36.30;17.17;;;12.10;22.40;;;;;;5091319;28;20172;-72
2022/03/29 01:12:34;;;;;;;30.30;17.00;;;12.20;22.20;;;;;;5084099;28;20436;-69
2022/03/29 01:15:04;;;;;;;31.47;16.47;;;12.20;23.60;;;;;;5073781;28;20425;-69
2022/03/29 01:17:39;;;;;;;34.00;18.00;;;12.20;23.00;;;;;;5091231;28;20427;-69
2022/03/29 01:20:12;;;;;;;35.63;18.23;;;12.70;22.00;;;;;;5092127;28;20408;-70
2022/03/29 01:22:43;;;;;;;35.87;16.97;;;12.80;22.40;;;;;;5088215;28;20452;-69
2022/03/29 01:25:13;;;;;;;30.30;16.60;;;12.60;23.00;;;;;;5091264;28;20486;-69
2022/03/29 01:27:39;;;;;;;34.00;17.30;;;12.50;22.80;;;;;;5090615;28;21373;-70
2022/03/29 01:30:05;;;;;;;32.30;17.67;;;12.20;23.80;;;;;;5105428;28;20427;-73
2022/03/29 01:32:32;;;;;;;37.27;17.70;;;12.00;23.50;;;;;;5090432;28;20462;-70
2022/03/29 01:34:59;;;;;;;39.50;17.73;;;11.90;23.70;;;;;;5089128;28;20924;-70
2022/03/29 01:37:25;;;;;;;40.50;17.80;;;12.10;23.70;;;;;;5091676;28;20507;-69
2022/03/29 01:39:50;;;;;;;32.50;17.57;;;12.10;23.70;;;;;;5091568;28;20472;-69
2022/03/29 01:42:18;;;;;;;31.50;17.17;;;12.10;24.20;;;;;;5091191;28;20453;-69
2022/03/29 01:44:44;;;;;;;41.03;17.67;;;12.40;23.20;;;;;;5090504;28;20177;-72
2022/03/29 01:47:10;;;;;;;53.17;17.13;;;12.20;23.30;;;;;;5089499;28;20457;-69
2022/03/29 01:49:37;;;;;;;37.53;17.20;;;12.00;24.70;;;;;;5087793;28;20432;-70
2022/03/29 01:52:04;;;;;;;37.73;16.63;;;11.90;24.80;;;;;;5089703;28;20436;-69
2022/03/29 01:54:31;;;;;;;23.73;14.80;;;11.90;23.80;;;;;;5090919;28;20420;-69
2022/03/29 01:56:56;;;;;;;32.63;14.63;;;11.90;23.40;;;;;;5091470;28;20746;-70
2022/03/29 01:59:22;;;;;;;31.57;15.57;;;11.80;24.40;;;;;;5087230;28;20443;-69
2022/03/29 02:01:49;;;;;;;28.33;15.17;;;11.90;25.10;;;;;;5090007;28;20549;-71
2022/03/29 02:04:16;;;;;;;25.83;14.37;;;11.90;24.10;;;;;;5091440;28;20178;-69
2022/03/29 02:06:42;;;;;;;25.73;15.47;;;11.80;24.50;;;;;;5089486;28;20470;-73
2022/03/29 02:09:08;;;;;;;29.70;14.53;;;11.80;24.60;;;;;;5084642;28;20452;-69
2022/03/29 02:11:40;;;;;;;28.57;15.97;;;11.80;24.40;;;;;;5090998;28;20755;-72
2022/03/29 02:14:07;;;;;;;34.73;14.00;;;11.90;25.30;;;;;;5091282;28;20424;-70
2022/03/29 02:16:33;;;;;;;26.97;14.07;;;11.80;25.10;;;;;;5091058;28;20533;-70
2022/03/29 02:18:59;;;;;;;25.93;14.57;;;11.80;24.00;;;;;;5090658;28;20959;-69
2022/03/29 02:21:25;;;;;;;30.83;14.97;;;11.90;23.50;;;;;;5090859;28;20436;-69
2022/03/29 02:23:50;;;;;;;35.13;15.20;;;11.70;24.20;;;;;;5090788;28;20215;-70
2022/03/29 02:26:16;;;;;;;38.40;16.57;;;11.80;25.00;;;;;;5091180;28;20222;-72
2022/03/29 02:28:42;;;;;;;34.50;14.97;;;11.70;24.10;;;;;;5090185;28;20247;-70
2022/03/29 02:31:08;;;;;;;27.97;13.90;;;11.80;24.00;;;;;;5090193;28;20213;-69
2022/03/29 02:33:34;;;;;;;35.43;14.53;;;11.70;24.30;;;;;;5090566;28;20487;-69
2022/03/29 02:36:00;;;;;;;30.40;15.93;;;11.50;23.70;;;;;;5091324;28;20404;-69
2022/03/29 02:38:25;;;;;;;31.97;15.33;;;11.50;23.60;;;;;;5090242;28;20167;-69
2022/03/29 02:40:51;;;;;;;27.47;15.03;;;11.50;23.30;;;;;;5090152;28;20277;-69
2022/03/29 02:43:17;;;;;;;33.43;15.20;;;11.40;24.20;;;;;;5089410;28;20498;-70
2022/03/29 02:45:43;;;;;;;36.80;15.40;;;11.90;22.90;;;;;;5088174;28;20538;-72
2022/03/29 02:48:08;;;;;;;29.33;15.70;;;12.00;22.50;;;;;;5090608;28;20614;-69
2022/03/29 02:50:34;;;;;;;29.07;15.23;;;12.20;22.10;;;;;;5090717;28;20175;-69
2022/03/29 02:53:02;;;;;;;37.50;15.53;;;12.30;22.30;;;;;;5090541;28;20550;-69
2022/03/29 02:55:30;;;;;;;40.03;15.80;;;12.00;24.10;;;;;;5091414;28;20167;-69
2022/03/29 02:57:57;;;;;;;27.97;15.07;;;12.10;22.60;;;;;;5090280;28;20424;-69
2022/03/29 03:00:23;;;;;;;25.47;15.20;;;12.40;23.10;;;;;;5071901;28;20424;-69
2022/03/29 03:02:51;;;;;;;35.73;16.10;;;12.20;23.20;;;;;;5089903;28;20432;-69
2022/03/29 03:05:19;;;;;;;34.63;15.27;;;12.20;22.80;;;;;;5090432;28;20959;-69
2022/03/29 03:07:45;;;;;;;32.70;17.90;;;12.00;24.60;;;;;;5090594;28;20513;-69
2022/03/29 03:10:12;;;;;;;34.03;16.00;;;11.80;24.00;;;;;;5090705;28;20412;-69
2022/03/29 03:12:42;;;;;;;28.00;16.20;;;11.70;24.10;;;;;;5093943;28;20520;-69
2022/03/29 03:15:10;;;;;;;42.17;16.93;;;11.60;24.10;;;;;;5093872;28;20463;-69
2022/03/29 03:17:36;;;;;;;33.53;18.07;;;11.40;24.20;;;;;;5094301;28;20764;-69
2022/03/29 03:20:04;;;;;;;28.60;16.60;;;11.30;24.70;;;;;;5093324;28;20515;-70
2022/03/29 03:22:30;;;;;;;29.20;16.17;;;10.80;24.80;;;;;;5092007;28;20445;-72
2022/03/29 03:24:55;;;;;;;28.37;16.07;;;10.40;25.80;;;;;;5093775;28;20428;-69
2022/03/29 03:27:21;;;;;;;35.63;19.00;;;10.70;25.30;;;;;;5075756;28;20207;-69
2022/03/29 03:29:47;;;;;;;45.47;17.53;;;11.00;25.80;;;;;;5094029;28;20170;-72
2022/03/29 03:32:14;;;;;;;32.70;17.63;;;11.10;25.20;;;;;;5092655;28;20609;-69
2022/03/29 03:34:41;;;;;;;39.95;17.92;;;11.20;25.40;;;;;;5093115;28;20586;-68
2022/03/29 03:37:07;;;;;;;35.35;17.48;;;11.10;25.90;;;;;;5093964;28;20185;-69
2022/03/29 03:39:35;;;;;;;42.15;18.83;;;11.30;24.50;;;;;;5094162;28;20177;-69
2022/03/29 03:42:05;;;;;;;31.73;18.23;;;11.10;25.70;;;;;;5093225;28;20694;-71
2022/03/29 03:44:30;;;;;;;37.25;18.95;;;11.00;25.60;;;;;;5093245;28;20424;-71
2022/03/29 03:46:57;;;;;;;35.50;18.40;;;10.90;26.10;;;;;;5093040;28;20217;-71
2022/03/29 03:49:23;;;;;;;31.30;17.37;;;11.00;25.90;;;;;;5093539;28;20266;-70
2022/03/29 03:51:48;;;;;;;39.10;18.90;;;11.00;25.30;;;;;;5092944;28;20893;-74
2022/03/29 03:54:14;;;;;;;32.70;17.80;;;11.30;25.00;;;;;;5092671;28;20232;-69
2022/03/29 03:56:40;;;;;;;32.60;17.40;;;11.40;24.60;;;;;;5093079;28;20675;-69
2022/03/29 03:59:05;;;;;;;33.20;18.00;;;11.30;25.40;;;;;;5088045;28;20272;-69
2022/03/29 04:01:31;;;;;;;36.13;17.40;;;11.30;25.50;;;;;;5089072;28;20206;-70
2022/03/29 04:03:57;;;;;;;38.93;16.70;;;11.10;25.70;;;;;;5091679;28;20547;-72
2022/03/29 04:06:23;;;;;;;27.20;16.20;;;11.40;24.80;;;;;;5092352;28;20202;-69
2022/03/29 04:08:48;;;;;;;37.30;17.40;;;11.60;23.90;;;;;;5092841;28;20250;-69
2022/03/29 04:11:14;;;;;;;36.23;16.50;;;11.70;23.70;;;;;;5093047;28;20198;-69
2022/03/29 04:13:39;;;;;;;33.37;16.53;;;11.50;24.40;;;;;;5092172;28;20252;-69
2022/03/29 04:16:05;;;;;;;32.67;16.57;;;11.00;26.10;;;;;;5092697;28;20178;-72
2022/03/29 04:18:31;;;;;;;32.13;16.63;;;10.90;25.50;;;;;;5092831;28;20177;-69
2022/03/29 04:20:57;;;;;;;33.80;16.00;;;11.00;25.80;;;;;;5092356;28;20205;-69
2022/03/29 04:23:23;;;;;;;35.97;16.45;;;11.10;25.50;;;;;;5092242;28;20213;-69
2022/03/29 04:25:48;;;;;;;33.10;16.63;;;11.40;24.30;;;;;;5092746;28;20205;-70
2022/03/29 04:28:14;;;;;;;31.57;18.33;;;11.40;23.90;;;;;;5092221;28;20206;-69
2022/03/29 04:30:40;;;;;;;35.30;17.13;;;11.60;24.10;;;;;;5073842;28;20201;-71
2022/03/29 04:33:06;;;;;;;34.43;17.00;;;11.30;24.80;;;;;;5092295;28;20184;-69
2022/03/29 04:35:32;;;;;;;31.23;16.43;;;11.00;25.00;;;;;;5092398;28;20177;-68
2022/03/29 04:37:57;;;;;;;30.37;17.27;;;10.90;26.10;;;;;;5091950;28;20497;-69
2022/03/29 04:40:23;;;;;;;35.03;17.23;;;11.00;25.50;;;;;;5084644;28;20432;-73
2022/03/29 04:42:50;;;;;;;35.60;16.73;;;11.60;25.10;;;;;;5091129;28;20596;-73
2022/03/29 04:45:17;;;;;;;29.40;15.45;;;11.10;25.20;;;;;;5091966;28;20178;-72
2022/03/29 04:47:44;;;;;;;36.78;16.10;;;10.90;24.80;;;;;;5091146;28;20206;-69
2022/03/29 04:50:11;;;;;;;39.78;17.77;;;10.80;25.80;;;;;;5090858;28;20166;-69
2022/03/29 04:52:39;;;;;;;35.63;17.50;;;10.80;25.80;;;;;;5089776;28;20282;-69
2022/03/29 04:55:06;;;;;;;30.92;16.90;;;10.70;25.70;;;;;;5090908;28;20432;-69
2022/03/29 04:57:32;;;;;;;38.27;17.33;;;11.00;25.10;;;;;;5092058;28;20217;-69
2022/03/29 04:59:58;;;;;;;36.60;17.50;;;11.30;24.90;;;;;;5091303;28;20916;-69
2022/03/29 05:02:23;;;;;;;44.10;18.70;;;10.90;25.10;;;;;;5091404;28;20497;-69
2022/03/29 05:04:51;;;;;;;41.07;19.70;;;10.90;25.20;;;;;;5092021;28;20224;-69
2022/03/29 05:07:16;;;;;;;52.85;20.48;;;10.90;25.70;;;;;;5091823;28;20198;-68
2022/03/29 05:09:42;;;;;;;46.70;20.90;;;10.70;26.00;;;;;;5091601;28;20607;-70
2022/03/29 05:12:08;;;;;;;56.13;20.53;;;10.80;26.20;;;;;;5074072;28;20448;-69
2022/03/29 05:14:34;;;;;;;48.53;23.40;;;10.60;26.70;;;;;;5085504;28;20651;-69
2022/03/29 05:17:00;;;;;;;52.40;23.33;;;10.60;26.70;;;;;;5091815;28;20174;-69
2022/03/29 05:19:26;;;;;;;44.40;20.60;;;10.70;26.80;;;;;;5091813;28;20989;-69
2022/03/29 05:21:52;;;;;;;47.23;21.73;;;10.90;26.30;;;;;;5091148;28;20455;-69
2022/03/29 05:24:18;;;;;;;35.00;19.30;;;11.00;25.60;;;;;;5091259;28;20936;-69
2022/03/29 05:26:44;;;;;;;38.97;22.00;;;11.30;26.30;;;;;;5091078;28;20205;-69
2022/03/29 05:29:10;;;;;;;50.00;23.43;;;11.40;25.30;;;;;;5091181;28;20237;-70
2022/03/29 05:31:36;;;;;;;42.53;22.10;;;11.40;26.60;;;;;;5089199;28;20451;-69
2022/03/29 05:34:02;;;;;;;35.53;19.90;;;11.00;26.40;;;;;;5090761;28;20189;-69
2022/03/29 05:36:27;;;;;;;44.97;21.80;;;10.90;26.50;;;;;;5091395;28;20613;-71
2022/03/29 05:38:53;;;;;;;34.43;20.47;;;10.90;26.90;;;;;;5091345;28;20192;-70
2022/03/29 05:41:20;;;;;;;59.03;24.10;;;10.90;27.00;;;;;;5091071;28;20702;-69
2022/03/29 05:43:48;;;;;;;53.17;23.20;;;11.00;27.30;;;;;;5090837;28;20421;-69
2022/03/29 05:48:59;;;;;;;50.50;21.70;;;11.30;27.70;;;;;;5091273;28;20474;-69
2022/03/29 05:51:27;;;;;;;56.90;20.40;;;11.40;26.80;;;;;;5090920;28;20444;-69
2022/03/29 05:53:54;;;;;;;49.40;20.90;;;11.30;26.10;;;;;;5090602;28;20454;-69
2022/03/29 05:56:20;;;;;;;51.00;21.27;;;11.40;25.70;;;;;;5091290;28;20431;-69
2022/03/29 05:58:46;;;;;;;39.13;20.07;;;11.50;25.40;;;;;;5090601;28;20466;-69
2022/03/29 06:01:12;;;;;;;37.93;20.40;;;11.70;25.40;;;;;;5090841;28;20443;-72
2022/03/29 06:03:38;;;;;;;41.63;20.73;;;11.50;26.30;;;;;;5087984;28;20416;-69
2022/03/29 06:06:04;;;;;;;38.33;19.10;;;11.70;25.80;;;;;;5080565;28;20452;-69
2022/03/29 06:08:31;;;;;;;54.33;21.93;;;12.00;26.20;;;;;;5090562;28;20440;-69
2022/03/29 06:10:58;;;;;;;40.40;20.47;;;12.00;25.60;;;;;;5089953;28;20938;-69
2022/03/29 06:13:25;;;;;;;53.63;20.10;;;12.10;25.40;;;;;;5091331;28;20456;-68
2022/03/29 06:15:51;;;;;;;41.43;20.57;;;12.00;24.70;;;;;;5090757;28;20429;-69
2022/03/29 06:18:17;;;;;;;60.40;20.73;;;12.10;25.40;;;;;;5090791;28;20470;-69
2022/03/29 06:20:42;;;;;;;84.10;21.80;;;12.20;24.60;;;;;;5090352;28;20440;-77
2022/03/29 06:23:08;;;;;;;67.37;22.03;;;12.20;24.40;;;;;;5091022;28;20241;-75
2022/03/29 06:25:35;;;;;;;80.33;22.13;;;12.30;24.60;;;;;;5073180;28;20230;-74
2022/03/29 06:28:01;;;;;;;76.40;21.27;;;12.30;24.40;;;;;;5090701;28;20459;-73
2022/03/29 06:30:27;;;;;;;58.03;21.07;;;12.50;24.40;;;;;;5090251;28;20416;-77
2022/03/29 06:32:53;;;;;;;43.53;18.77;;;12.40;24.50;;;;;;5071375;28;20422;-77
2022/03/29 06:35:24;;;;;;;35.87;18.87;;;12.50;23.60;;;;;;5090934;28;20431;-71
2022/03/29 06:37:52;;;;;;;44.83;18.97;;;12.50;24.30;;;;;;5086857;28;20441;-68
2022/03/29 06:40:17;;;;;;;36.47;18.27;;;12.40;23.70;;;;;;5082351;28;20530;-69
2022/03/29 06:42:43;;;;;;;41.67;20.07;;;12.30;23.90;;;;;;5090939;28;20886;-69
2022/03/29 06:45:10;;;;;;;38.50;22.30;;;12.70;24.20;;;;;;5091627;28;20457;-72
2022/03/29 06:47:36;;;;;;;46.03;23.90;;;12.60;23.10;;;;;;5094786;28;20825;-68
2022/03/29 06:50:04;;;;;;;42.80;22.73;;;12.30;23.90;;;;;;5094650;28;20422;-69
2022/03/29 06:52:41;;;;;;;44.50;21.50;;;12.60;24.80;;;;;;5093691;28;20484;-68
2022/03/29 06:55:08;;;;;;;47.13;21.10;;;13.00;23.60;;;;;;5074416;28;20406;-70
2022/03/29 06:57:34;;;;;;;41.10;20.80;;;13.10;23.40;;;;;;5075031;28;20411;-75
2022/03/29 07:00:00;;;;;;;40.57;21.80;;;13.20;23.40;;;;;;5090806;28;20421;-71
2022/03/29 07:02:25;;;;;;;40.90;20.60;;;13.40;22.60;;;;;;5093480;28;20700;-71
2022/03/29 07:04:51;;;;;;;37.70;20.50;;;13.50;22.40;;;;;;5093294;28;20263;-71
2022/03/29 07:07:17;;;;;;;37.83;19.73;;;13.70;22.10;;;;;;5094766;28;20207;-71
2022/03/29 07:12:30;;;;;;;34.57;19.97;;;14.10;20.70;;;;;;5093803;28;20557;-72
2022/03/29 07:14:57;;;;;;;48.70;19.77;;;14.20;22.10;;;;;;5094652;28;20404;-72
2022/03/29 07:17:23;;;;;;;42.13;19.07;;;14.10;21.80;;;;;;5091906;28;20427;-72
2022/03/29 07:19:49;;;;;;;34.73;19.40;;;14.20;21.80;;;;;;5094332;28;20439;-73
2022/03/29 07:22:14;;;;;;;46.23;19.90;;;13.80;21.60;;;;;;5094017;28;20290;-72
2022/03/29 07:24:40;;;;;;;46.90;20.07;;;13.70;21.50;;;;;;5094355;28;20201;-73
2022/03/29 07:27:07;;;;;;;39.17;19.50;;;13.60;22.20;;;;;;5094290;28;20197;-71
2022/03/29 07:29:33;;;;;;;37.90;20.73;;;13.90;21.60;;;;;;5089296;28;20174;-70
2022/03/29 07:31:59;;;;;;;39.30;20.97;;;14.00;21.70;;;;;;5093269;28;20801;-71
2022/03/29 07:34:25;;;;;;;32.53;19.33;;;14.20;21.20;;;;;;5094302;28;20408;-73
2022/03/29 07:36:52;;;;;;;37.10;19.57;;;14.20;21.90;;;;;;5094224;28;20802;-72
2022/03/29 07:39:18;;;;;;;47.93;20.90;;;13.90;21.60;;;;;;5084111;28;20228;-72
2022/03/29 07:41:44;;;;;;;43.53;21.23;;;13.30;22.70;;;;;;5066631;28;20460;-71
2022/03/29 07:44:10;;;;;;;50.00;20.77;;;13.30;22.20;;;;;;5094095;28;20185;-72
2022/03/29 07:46:36;;;;;;;39.80;19.10;;;13.60;22.00;;;;;;5093480;28;20221;-72
2022/03/29 07:49:02;;;;;;;35.90;20.00;;;13.80;21.80;;;;;;5093397;28;20448;-72
2022/03/29 07:51:27;;;;;;;51.10;21.10;;;13.90;21.60;;;;;;5073521;28;20828;-72
2022/03/29 07:53:53;;;;;;;41.13;20.37;;;14.00;21.70;;;;;;5092914;28;20428;-73
2022/03/29 07:56:18;;;;;;;42.23;19.90;;;14.20;21.80;;;;;;5092998;28;20164;-72
2022/03/29 07:58:44;;;;;;;38.57;19.80;;;14.40;20.60;;;;;;5092856;28;20240;-72
2022/03/29 08:01:10;;;;;;;33.67;20.90;;;14.60;20.90;;;;;;5093075;28;20721;-76
2022/03/29 08:03:35;;;;;;;41.57;21.40;;;14.60;21.80;;;;;;5087587;28;20203;-70
2022/03/29 08:06:02;;;;;;;39.90;20.90;;;15.00;20.80;;;;;;5093501;28;20262;-70
2022/03/29 08:08:29;;;;;;;38.57;20.10;;;14.90;20.30;;;;;;5091878;28;20233;-71
2022/03/29 08:10:54;;;;;;;38.33;21.60;;;15.10;19.60;;;;;;5091196;28;20449;-71
2022/03/29 08:13:25;;;;;;;39.30;20.23;;;14.90;20.70;;;;;;5068737;28;20795;-70
2022/03/29 08:15:53;;;;;;;44.70;20.53;;;15.30;19.70;;;;;;5058285;28;20213;-71
2022/03/29 08:18:19;;;;;;;36.73;19.70;;;15.50;19.80;;;;;;5074231;28;20422;-72
2022/03/29 08:20:47;;;;;;;36.50;20.50;;;15.40;19.90;;;;;;5073404;28;20531;-72
2022/03/29 08:23:12;;;;;;;35.43;20.47;;;15.70;19.30;;;;;;5072831;28;20414;-70
2022/03/29 08:25:40;;;;;;;33.97;19.90;;;16.20;19.10;;;;;;5090687;28;20430;-70
2022/03/29 08:28:06;;;;;;;43.57;20.20;;;16.00;19.20;;;;;;5093148;28;20291;-72
2022/03/29 08:30:33;;;;;;;53.77;20.27;;;15.70;20.10;;;;;;5092840;28;20465;-74
2022/03/29 08:33:00;;;;;;;35.70;21.23;;;16.10;19.50;;;;;;5074883;28;20560;-72
2022/03/29 08:35:25;;;;;;;54.50;21.10;;;16.30;19.50;;;;;;5092045;28;20481;-70
2022/03/29 08:37:52;;;;;;;37.30;19.70;;;16.30;18.80;;;;;;5091344;28;20426;-70
2022/03/29 08:40:22;;;;;;;52.13;19.90;;;16.60;18.70;;;;;;5067631;28;20271;-71
2022/03/29 08:42:49;;;;;;;39.93;20.67;;;16.40;19.20;;;;;;5083614;28;20433;-70
2022/03/29 08:45:17;;;;;;;40.70;18.63;;;16.10;20.00;;;;;;5092292;28;20521;-71
2022/03/29 08:47:45;;;;;;;47.83;21.50;;;16.00;20.60;;;;;;5092588;28;20540;-72
2022/03/29 08:50:14;;;;;;;51.40;21.00;;;15.90;20.20;;;;;;5091400;28;20772;-71
2022/03/29 08:52:41;;;;;;;61.17;20.60;;;16.00;19.70;;;;;;5109590;28;20435;-70
2022/03/29 08:55:08;;;;;;;51.70;20.97;;;16.20;20.30;;;;;;5090883;28;20420;-72
2022/03/29 08:57:35;;;;;;;37.37;21.07;;;16.80;20.00;;;;;;5089499;28;20516;-71
2022/03/29 09:00:01;;;;;;;34.40;20.73;;;17.10;20.40;;;;;;5092411;28;20684;-70
2022/03/29 09:02:32;;;;;;;52.67;21.70;;;17.30;19.10;;;;;;5098624;28;20586;-71
2022/03/29 09:05:13;;;;;;;35.30;19.87;;;16.80;19.40;;;;;;5084527;28;20457;-72
2022/03/29 09:07:49;;;;;;;40.53;20.97;;;17.00;19.50;;;;;;5091758;28;20457;-72
2022/03/29 09:10:15;;;;;;;45.33;20.43;;;16.70;19.20;;;;;;5092148;28;20497;-72
2022/03/29 09:12:41;;;;;;;58.53;19.53;;;16.30;20.20;;;;;;5091742;28;20874;-72
2022/03/29 09:15:08;;;;;;;58.00;21.90;;;16.50;20.10;;;;;;5090575;28;20515;-71
2022/03/29 09:17:45;;;;;;;42.50;22.37;;;16.60;19.70;;;;;;5092472;28;20174;-72
2022/03/29 09:20:14;;;;;;;49.33;22.70;;;16.30;20.10;;;;;;5092041;28;20428;-72
2022/03/29 09:22:52;;;;;;;61.00;21.10;;;16.20;20.90;;;;;;5091947;28;20428;-72
2022/03/29 09:25:17;;;;;;;41.63;21.27;;;17.00;19.00;;;;;;5102388;28;20448;-72
2022/03/29 09:27:53;;;;;;;43.07;22.20;;;17.60;19.20;;;;;;5112142;28;20462;-72
2022/03/29 09:30:20;;;;;;;37.33;19.80;;;18.10;18.30;;;;;;5112561;28;20173;-72
2022/03/29 09:32:52;;;;;;;44.83;20.80;;;18.10;18.20;;;;;;5111629;28;20780;-72
2022/03/29 09:35:19;;;;;;;39.00;21.00;;;18.90;18.00;;;;;;5106657;28;20424;-72
2022/03/29 09:37:45;;;;;;;38.27;20.70;;;19.60;16.30;;;;;;5112089;28;20426;-72
2022/03/29 09:40:12;;;;;;;35.90;19.90;;;19.60;16.00;;;;;;5112719;28;20406;-72
2022/03/29 09:42:41;;;;;;;55.33;19.70;;;20.00;17.10;;;;;;5093408;28;20431;-73
2022/03/29 09:45:08;;;;;;;43.97;18.60;;;20.30;15.70;;;;;;5110481;28;20414;-72
2022/03/29 09:47:35;;;;;;;39.97;21.57;;;20.80;16.60;;;;;;5084586;28;20520;-72
2022/03/29 09:50:08;;;;;;;45.33;20.07;;;20.80;15.90;;;;;;5091744;28;20398;-72
2022/03/29 09:52:39;;;;;;;30.10;15.20;;;21.40;14.20;;;;;;5073316;28;20518;-71
2022/03/29 09:55:21;;;;;;;25.63;14.03;;;20.00;11.60;;;;;;5091349;28;20423;-71
2022/03/29 09:57:54;;;;;;;24.57;14.90;;;18.90;13.20;;;;;;5089988;28;20422;-72
2022/03/29 10:00:39;;;;;;;28.70;14.20;;;18.40;13.50;;;;;;5071035;28;20415;-72
2022/03/29 10:03:10;;;;;;;24.97;14.57;;;18.80;12.70;;;;;;5071157;28;20812;-72
2022/03/29 10:05:39;;;;;;;28.97;13.50;;;19.10;12.80;;;;;;5070862;28;20504;-71
2022/03/29 10:10:55;;;;;;;24.10;14.00;;;18.60;11.20;;;;;;5070921;28;20875;-71
2022/03/29 10:13:23;;;;;;;30.63;14.00;;;18.60;10.70;;;;;;5071667;28;20760;-73
2022/03/29 10:15:53;;;;;;;27.03;14.47;;;19.60;10.70;;;;;;5071018;28;20424;-73
2022/03/29 10:18:21;;;;;;;26.67;14.30;;;18.40;11.10;;;;;;5088731;28;20780;-71
2022/03/29 10:20:48;;;;;;;29.63;15.03;;;18.60;11.30;;;;;;5092881;28;20454;-72
2022/03/29 10:23:14;;;;;;;30.63;15.43;;;18.80;11.40;;;;;;5075814;28;20423;-71
2022/03/29 10:25:42;;;;;;;27.33;15.20;;;18.90;10.90;;;;;;5095102;28;20434;-71
2022/03/29 10:28:08;;;;;;;23.83;15.00;;;18.30;11.60;;;;;;5093457;28;20461;-72
2022/03/29 10:30:35;;;;;;;23.07;15.50;;;18.50;11.20;;;;;;5094982;28;20406;-71
2022/03/29 10:33:27;;;;;;;24.40;14.53;;;19.50;10.20;;;;;;5094941;28;20407;-72
2022/03/29 10:35:58;;;;;;;29.90;15.07;;;20.00;9.70;;;;;;5095447;28;20400;-72
2022/03/29 10:38:43;;;;;;;37.00;15.80;;;19.40;10.90;;;;;;5093361;28;20493;-72
2022/03/29 10:41:26;;;;;;;27.17;14.70;;;19.80;10.20;;;;;;5094419;28;20613;-72
2022/03/29 10:44:04;;;;;;;36.23;14.50;;;20.30;9.00;;;;;;5094964;28;20411;-72
2022/03/29 10:46:39;;;;;;;32.53;14.90;;;19.90;9.80;;;;;;5095635;28;20813;-72
2022/03/29 10:49:28;;;;;;;30.17;14.90;;;19.30;10.00;;;;;;5093120;28;20999;-71
2022/03/29 10:52:22;;;;;;;28.53;14.13;;;20.20;8.60;;;;;;5094809;28;20420;-72
2022/03/29 10:54:49;;;;;;;31.07;14.50;;;20.50;8.40;;;;;;5094838;28;20416;-72
2022/03/29 10:57:20;;;;;;;22.93;14.53;;;20.40;8.70;;;;;;5095232;28;20420;-72
2022/03/29 10:59:50;;;;;;;28.40;15.50;;;20.30;10.30;;;;;;5093083;28;20428;-71
2022/03/29 11:02:22;;;;;;;32.70;16.63;;;19.40;10.00;;;;;;5076007;28;20436;-71
2022/03/29 11:05:04;;;;;;;31.43;13.80;;;19.50;10.30;;;;;;5094461;28;20774;-72
2022/03/29 11:07:38;;;;;;;29.07;15.10;;;20.30;9.20;;;;;;5094835;28;20456;-72
2022/03/29 11:10:09;;;;;;;36.03;14.80;;;20.20;8.80;;;;;;5094353;28;20412;-72
2022/03/29 11:12:37;;;;;;;30.80;14.83;;;21.00;8.10;;;;;;5093091;28;20471;-71
2022/03/29 11:15:47;;;;;;;26.90;14.33;;;21.00;8.70;;;;;;5094341;28;20936;-72
2022/03/29 11:18:30;;;;;;;28.77;14.83;;;20.40;9.20;;;;;;5094719;28;20423;-71
2022/03/29 11:21:02;;;;;;;26.57;14.10;;;20.30;8.40;;;;;;5092682;28;20500;-71
2022/03/29 11:23:39;;;;;;;22.17;13.90;;;20.10;8.90;;;;;;5090528;28;20424;-72
2022/03/29 11:26:08;;;;;;;24.10;14.10;;;20.50;8.80;;;;;;5074509;28;20428;-71
2022/03/29 11:28:34;;;;;;;30.13;14.87;;;20.50;8.80;;;;;;5090612;28;20462;-72
2022/03/29 11:31:00;;;;;;;31.93;14.23;;;21.10;9.00;;;;;;5091163;28;20543;-72
2022/03/29 11:33:34;;;;;;;23.70;14.90;;;22.10;7.60;;;;;;5100774;28;20472;-72
2022/03/29 11:36:00;;;;;;;34.33;14.57;;;23.20;7.00;;;;;;5093511;28;20198;-72
2022/03/29 11:38:30;;;;;;;28.23;14.37;;;23.80;6.10;;;;;;5074954;28;20434;-71
2022/03/29 11:40:55;;;;;;;25.83;14.77;;;22.20;7.40;;;;;;5093500;28;20937;-72
2022/03/29 11:43:24;;;;;;;27.67;14.47;;;21.10;8.00;;;;;;5092375;28;20434;-72
2022/03/29 11:45:53;;;;;;;27.73;14.03;;;20.80;8.10;;;;;;5093590;28;20174;-71
2022/03/29 11:48:21;;;;;;;24.00;14.20;;;20.00;8.50;;;;;;5093471;28;20463;-71
2022/03/29 11:50:53;;;;;;;28.27;14.27;;;20.40;8.80;;;;;;5093623;28;20982;-72
2022/03/29 11:53:20;;;;;;;32.63;14.57;;;21.20;7.60;;;;;;5092471;28;20425;-72
2022/03/29 11:56:07;;;;;;;23.90;14.43;;;21.70;9.10;;;;;;5093416;28;20461;-72
2022/03/29 11:58:40;;;;;;;28.33;15.10;;;22.80;6.90;;;;;;5075383;28;20462;-71
2022/03/29 12:01:11;;;;;;;35.90;13.83;;;22.20;6.90;;;;;;5093361;28;20460;-71
2022/03/29 12:03:45;;;;;;;26.83;13.87;;;21.30;8.30;;;;;;5094212;28;20411;-71
2022/03/29 12:06:17;;;;;;;26.97;13.37;;;20.30;8.90;;;;;;5073892;28;20771;-71
2022/03/29 12:08:44;;;;;;;24.40;13.60;;;20.40;9.10;;;;;;5091382;28;20856;-72
2022/03/29 12:11:10;;;;;;;24.80;14.10;;;20.90;8.00;;;;;;5094376;28;20436;-71
2022/03/29 12:13:35;;;;;;;22.60;13.63;;;20.80;8.90;;;;;;5094063;28;20513;-72
2022/03/29 12:16:19;;;;;;;24.57;14.47;;;21.70;9.00;;;;;;5092553;28;20178;-73
2022/03/29 12:18:45;;;;;;;24.17;14.10;;;22.70;8.30;;;;;;5075501;28;20601;-73
2022/03/29 12:21:13;;;;;;;25.20;14.63;;;23.30;6.90;;;;;;5093577;28;20463;-71
2022/03/29 12:23:39;;;;;;;26.80;13.23;;;22.90;6.80;;;;;;5093667;28;20424;-71
2022/03/29 12:26:06;;;;;;;20.30;13.37;;;21.50;7.20;;;;;;5085938;28;20483;-71
2022/03/29 12:28:32;;;;;;;21.73;12.70;;;22.00;7.20;;;;;;5076720;28;20452;-72
2022/03/29 12:30:59;;;;;;;21.67;13.77;;;23.00;7.90;;;;;;5092735;28;20456;-73
2022/03/29 12:33:25;;;;;;;23.77;13.10;;;23.20;6.50;;;;;;5074516;28;20445;-74
2022/03/29 12:36:14;;;;;;;34.50;13.37;;;24.40;5.00;;;;;;5074340;28;20405;-73
2022/03/29 12:38:49;;;;;;;28.30;12.60;;;24.90;5.10;;;;;;5073443;28;20163;-71
2022/03/29 12:41:32;;;;;;;21.97;12.87;;;22.90;7.30;;;;;;5055701;28;20440;-73